sensor_id;sensor_type;location;lat;lon;timestamp;pressure;altitude;pressure_sealevel;temperature;humidity
75681;BME280;64294;49.176;16.626;2023-09-19T00:01:14;98612.53;;;20.76;99.92
75681;BME280;64294;49.176;16.626;2023-09-19T00:03:40;98615.38;;;20.88;98.89
75681;BME280;64294;49.176;16.626;2023-09-19T00:06:07;98610.91;;;20.84;99.28
75681;BME280;64294;49.176;16.626;2023-09-19T00:08:34;98609.28;;;20.81;99.63
75681;BME280;64294;49.176;16.626;2023-09-19T00:11:00;98624.03;;;20.90;99.10
75681;BME280;64294;49.176;16.626;2023-09-19T00:13:32;98623.19;;;20.87;99.11
75681;BME280;64294;49.176;16.626;2023-09-19T00:15:59;98614.31;;;20.95;97.03
75681;BME280;64294;49.176;16.626;2023-09-19T00:18:26;98622.03;;;20.92;96.52
75681;BME280;64294;49.176;16.626;2023-09-19T00:21:00;98615.81;;;20.96;94.24
75681;BME280;64294;49.176;16.626;2023-09-19T00:23:26;98620.03;;;20.95;93.40
75681;BME280;64294;49.176;16.626;2023-09-19T00:25:59;98612.84;;;20.94;91.63
75681;BME280;64294;49.176;16.626;2023-09-19T00:28:24;98616.56;;;20.96;91.07
75681;BME280;64294;49.176;16.626;2023-09-19T00:30:50;98617.19;;;20.95;91.21
75681;BME280;64294;49.176;16.626;2023-09-19T00:33:15;98622.22;;;20.82;90.07
75681;BME280;64294;49.176;16.626;2023-09-19T00:35:50;98629.03;;;20.77;89.76
75681;BME280;64294;49.176;16.626;2023-09-19T00:38:23;98629.28;;;20.81;88.87
75681;BME280;64294;49.176;16.626;2023-09-19T00:40:53;98626.41;;;20.81;88.07
75681;BME280;64294;49.176;16.626;2023-09-19T00:43:21;98634.00;;;20.77;87.97
75681;BME280;64294;49.176;16.626;2023-09-19T00:45:51;98631.00;;;20.86;86.53
75681;BME280;64294;49.176;16.626;2023-09-19T00:48:22;98617.50;;;20.75;86.69
75681;BME280;64294;49.176;16.626;2023-09-19T00:50:48;98626.59;;;20.72;86.56
75681;BME280;64294;49.176;16.626;2023-09-19T00:53:17;98619.09;;;20.78;86.70
75681;BME280;64294;49.176;16.626;2023-09-19T00:55:45;98620.88;;;20.72;87.05
75681;BME280;64294;49.176;16.626;2023-09-19T00:58:13;98624.38;;;20.70;87.53
75681;BME280;64294;49.176;16.626;2023-09-19T01:00:47;98638.63;;;20.70;86.99
75681;BME280;64294;49.176;16.626;2023-09-19T01:03:13;98654.13;;;20.79;86.21
75681;BME280;64294;49.176;16.626;2023-09-19T01:05:41;98661.81;;;20.76;85.82
75681;BME280;64294;49.176;16.626;2023-09-19T01:08:07;98646.69;;;20.74;85.80
75681;BME280;64294;49.176;16.626;2023-09-19T01:10:33;98651.31;;;20.67;85.96
75681;BME280;64294;49.176;16.626;2023-09-19T01:13:12;98649.94;;;20.68;87.23
75681;BME280;64294;49.176;16.626;2023-09-19T01:19:07;98640.56;;;20.42;87.37
75681;BME280;64294;49.176;16.626;2023-09-19T01:22:09;98641.81;;;20.27;86.98
75681;BME280;64294;49.176;16.626;2023-09-19T01:29:49;98644.66;;;19.81;96.63
75681;BME280;64294;49.176;16.626;2023-09-19T01:32:19;98649.09;;;19.60;100.00
75681;BME280;64294;49.176;16.626;2023-09-19T01:34:54;98648.03;;;19.44;100.00
75681;BME280;64294;49.176;16.626;2023-09-19T01:37:22;98639.56;;;19.23;100.00
75681;BME280;64294;49.176;16.626;2023-09-19T01:40:03;98639.88;;;19.05;100.00
75681;BME280;64294;49.176;16.626;2023-09-19T01:51:21;98657.41;;;18.69;100.00
75681;BME280;64294;49.176;16.626;2023-09-19T01:53:54;98660.28;;;18.59;100.00
75681;BME280;64294;49.176;16.626;2023-09-19T01:56:37;98668.81;;;18.59;100.00
75681;BME280;64294;49.176;16.626;2023-09-19T01:59:09;98669.03;;;18.52;100.00
75681;BME280;64294;49.176;16.626;2023-09-19T02:01:39;98678.53;;;18.44;100.00
75681;BME280;64294;49.176;16.626;2023-09-19T02:04:07;98689.13;;;18.23;100.00
75681;BME280;64294;49.176;16.626;2023-09-19T02:06:35;98682.88;;;18.14;100.00
75681;BME280;64294;49.176;16.626;2023-09-19T02:09:01;98695.41;;;18.21;100.00
75681;BME280;64294;49.176;16.626;2023-09-19T02:11:26;98693.78;;;18.18;100.00
75681;BME280;64294;49.176;16.626;2023-09-19T02:13:52;98715.63;;;18.15;100.00
75681;BME280;64294;49.176;16.626;2023-09-19T02:16:20;98710.16;;;17.98;100.00
75681;BME280;64294;49.176;16.626;2023-09-19T02:18:48;98719.56;;;18.01;100.00
75681;BME280;64294;49.176;16.626;2023-09-19T02:21:15;98714.53;;;17.90;100.00
75681;BME280;64294;49.176;16.626;2023-09-19T02:23:40;98724.13;;;17.84;100.00
75681;BME280;64294;49.176;16.626;2023-09-19T02:26:06;98725.63;;;17.85;100.00
75681;BME280;64294;49.176;16.626;2023-09-19T02:28:32;98728.03;;;17.89;100.00
75681;BME280;64294;49.176;16.626;2023-09-19T02:30:58;98733.97;;;17.93;100.00
75681;BME280;64294;49.176;16.626;2023-09-19T02:33:24;98746.25;;;17.96;100.00
75681;BME280;64294;49.176;16.626;2023-09-19T02:35:58;98749.81;;;18.06;100.00
75681;BME280;64294;49.176;16.626;2023-09-19T02:38:27;98754.09;;;18.16;100.00
75681;BME280;64294;49.176;16.626;2023-09-19T02:40:52;98755.88;;;18.22;100.00
75681;BME280;64294;49.176;16.626;2023-09-19T02:43:20;98757.41;;;18.13;100.00
75681;BME280;64294;49.176;16.626;2023-09-19T02:45:49;98762.69;;;18.07;100.00
75681;BME280;64294;49.176;16.626;2023-09-19T02:48:20;98762.28;;;17.91;100.00
75681;BME280;64294;49.176;16.626;2023-09-19T02:50:46;98763.28;;;17.96;100.00
75681;BME280;64294;49.176;16.626;2023-09-19T02:53:14;98763.47;;;17.88;100.00
75681;BME280;64294;49.176;16.626;2023-09-19T02:55:40;98761.66;;;17.93;100.00
75681;BME280;64294;49.176;16.626;2023-09-19T02:58:06;98763.91;;;17.84;100.00
75681;BME280;64294;49.176;16.626;2023-09-19T03:00:37;98759.00;;;17.85;100.00
75681;BME280;64294;49.176;16.626;2023-09-19T03:03:05;98758.81;;;17.93;100.00
75681;BME280;64294;49.176;16.626;2023-09-19T03:05:31;98767.78;;;17.99;100.00
75681;BME280;64294;49.176;16.626;2023-09-19T03:07:57;98764.22;;;17.89;100.00
75681;BME280;64294;49.176;16.626;2023-09-19T03:10:25;98754.81;;;17.86;100.00
75681;BME280;64294;49.176;16.626;2023-09-19T03:12:51;98761.66;;;17.83;100.00
75681;BME280;64294;49.176;16.626;2023-09-19T03:15:16;98758.53;;;17.89;100.00
75681;BME280;64294;49.176;16.626;2023-09-19T03:17:47;98764.66;;;17.95;100.00
75681;BME280;64294;49.176;16.626;2023-09-19T03:20:13;98757.78;;;17.88;100.00
75681;BME280;64294;49.176;16.626;2023-09-19T03:22:42;98758.41;;;17.87;100.00
75681;BME280;64294;49.176;16.626;2023-09-19T03:25:08;98756.72;;;17.83;100.00
75681;BME280;64294;49.176;16.626;2023-09-19T03:27:34;98759.56;;;17.83;100.00
75681;BME280;64294;49.176;16.626;2023-09-19T03:30:00;98761.38;;;17.79;100.00
75681;BME280;64294;49.176;16.626;2023-09-19T03:32:26;98753.19;;;17.73;100.00
75681;BME280;64294;49.176;16.626;2023-09-19T03:34:51;98761.25;;;17.77;100.00
75681;BME280;64294;49.176;16.626;2023-09-19T03:37:17;98748.25;;;17.74;100.00
75681;BME280;64294;49.176;16.626;2023-09-19T03:39:45;98759.16;;;17.77;100.00
75681;BME280;64294;49.176;16.626;2023-09-19T03:42:10;98743.28;;;17.65;100.00
75681;BME280;64294;49.176;16.626;2023-09-19T03:44:35;98745.72;;;17.68;100.00
75681;BME280;64294;49.176;16.626;2023-09-19T03:47:01;98745.72;;;17.68;100.00
75681;BME280;64294;49.176;16.626;2023-09-19T03:49:26;98748.72;;;17.70;100.00
75681;BME280;64294;49.176;16.626;2023-09-19T03:51:52;98748.38;;;17.66;100.00
75681;BME280;64294;49.176;16.626;2023-09-19T03:54:18;98751.06;;;17.64;100.00
75681;BME280;64294;49.176;16.626;2023-09-19T03:56:44;98759.94;;;17.68;100.00
75681;BME280;64294;49.176;16.626;2023-09-19T03:59:11;98752.28;;;17.61;100.00
75681;BME280;64294;49.176;16.626;2023-09-19T04:01:40;98754.50;;;17.63;100.00
75681;BME280;64294;49.176;16.626;2023-09-19T04:04:06;98756.59;;;17.62;100.00
75681;BME280;64294;49.176;16.626;2023-09-19T04:06:35;98755.41;;;17.65;100.00
75681;BME280;64294;49.176;16.626;2023-09-19T04:09:02;98765.16;;;17.72;100.00
75681;BME280;64294;49.176;16.626;2023-09-19T04:11:29;98763.03;;;17.63;100.00
75681;BME280;64294;49.176;16.626;2023-09-19T04:13:55;98767.38;;;17.64;100.00
75681;BME280;64294;49.176;16.626;2023-09-19T04:16:21;98775.47;;;17.58;100.00
75681;BME280;64294;49.176;16.626;2023-09-19T04:18:46;98779.94;;;17.61;100.00
75681;BME280;64294;49.176;16.626;2023-09-19T04:21:12;98778.72;;;17.64;100.00
75681;BME280;64294;49.176;16.626;2023-09-19T04:23:37;98780.69;;;17.61;100.00
75681;BME280;64294;49.176;16.626;2023-09-19T04:26:02;98788.78;;;17.55;100.00
75681;BME280;64294;49.176;16.626;2023-09-19T04:28:32;98790.25;;;17.56;100.00
75681;BME280;64294;49.176;16.626;2023-09-19T04:30:59;98791.19;;;17.49;100.00
75681;BME280;64294;49.176;16.626;2023-09-19T04:33:27;98793.84;;;17.47;100.00
75681;BME280;64294;49.176;16.626;2023-09-19T04:35:55;98800.13;;;17.55;100.00
75681;BME280;64294;49.176;16.626;2023-09-19T04:38:21;98797.72;;;17.61;100.00
75681;BME280;64294;49.176;16.626;2023-09-19T04:40:47;98807.03;;;17.52;100.00
75681;BME280;64294;49.176;16.626;2023-09-19T04:43:13;98809.25;;;17.53;100.00
75681;BME280;64294;49.176;16.626;2023-09-19T04:45:41;98815.41;;;17.50;100.00
75681;BME280;64294;49.176;16.626;2023-09-19T04:48:10;98816.91;;;17.51;100.00
75681;BME280;64294;49.176;16.626;2023-09-19T04:50:42;98822.44;;;17.49;100.00
75681;BME280;64294;49.176;16.626;2023-09-19T04:53:08;98826.63;;;17.48;100.00
75681;BME280;64294;49.176;16.626;2023-09-19T04:55:34;98824.81;;;17.43;100.00
75681;BME280;64294;49.176;16.626;2023-09-19T04:57:59;98822.09;;;17.45;100.00
75681;BME280;64294;49.176;16.626;2023-09-19T05:00:24;98829.47;;;17.48;100.00
75681;BME280;64294;49.176;16.626;2023-09-19T05:02:55;98820.47;;;17.32;100.00
75681;BME280;64294;49.176;16.626;2023-09-19T05:05:24;98829.59;;;17.31;100.00
75681;BME280;64294;49.176;16.626;2023-09-19T05:07:51;98832.59;;;17.33;100.00
75681;BME280;64294;49.176;16.626;2023-09-19T05:10:19;98837.81;;;17.46;100.00
75681;BME280;64294;49.176;16.626;2023-09-19T05:12:45;98842.28;;;17.39;100.00
75681;BME280;64294;49.176;16.626;2023-09-19T05:15:13;98851.72;;;17.32;100.00
75681;BME280;64294;49.176;16.626;2023-09-19T05:17:40;98849.19;;;17.36;100.00
75681;BME280;64294;49.176;16.626;2023-09-19T05:20:06;98845.75;;;17.38;100.00
75681;BME280;64294;49.176;16.626;2023-09-19T05:22:50;98848.44;;;17.55;100.00
75681;BME280;64294;49.176;16.626;2023-09-19T05:25:18;98837.38;;;17.40;100.00
75681;BME280;64294;49.176;16.626;2023-09-19T05:27:48;98841.09;;;17.42;100.00
75681;BME280;64294;49.176;16.626;2023-09-19T05:30:13;98838.09;;;17.40;100.00
75681;BME280;64294;49.176;16.626;2023-09-19T05:32:40;98854.09;;;17.45;100.00
75681;BME280;64294;49.176;16.626;2023-09-19T05:35:06;98849.91;;;17.37;100.00
75681;BME280;64294;49.176;16.626;2023-09-19T05:37:35;98847.69;;;17.45;100.00
75681;BME280;64294;49.176;16.626;2023-09-19T05:40:01;98843.78;;;17.40;100.00
75681;BME280;64294;49.176;16.626;2023-09-19T05:42:26;98846.34;;;17.36;100.00
75681;BME280;64294;49.176;16.626;2023-09-19T05:44:52;98836.44;;;17.18;100.00
75681;BME280;64294;49.176;16.626;2023-09-19T05:47:17;98841.69;;;17.21;100.00
75681;BME280;64294;49.176;16.626;2023-09-19T05:49:43;98844.56;;;17.50;100.00
75681;BME280;64294;49.176;16.626;2023-09-19T05:52:09;98842.31;;;17.49;100.00
75681;BME280;64294;49.176;16.626;2023-09-19T05:54:34;98846.19;;;17.44;100.00
75681;BME280;64294;49.176;16.626;2023-09-19T05:57:03;98848.28;;;17.34;100.00
75681;BME280;64294;49.176;16.626;2023-09-19T05:59:28;98844.84;;;17.35;100.00
75681;BME280;64294;49.176;16.626;2023-09-19T06:01:54;98851.59;;;17.49;100.00
75681;BME280;64294;49.176;16.626;2023-09-19T06:04:20;98854.00;;;17.72;100.00
75681;BME280;64294;49.176;16.626;2023-09-19T06:06:49;98849.78;;;17.93;100.00
75681;BME280;64294;49.176;16.626;2023-09-19T06:09:15;98856.06;;;18.01;100.00
75681;BME280;64294;49.176;16.626;2023-09-19T06:11:43;98864.72;;;18.22;100.00
75681;BME280;64294;49.176;16.626;2023-09-19T06:14:09;98863.19;;;18.21;100.00
75681;BME280;64294;49.176;16.626;2023-09-19T06:16:36;98867.19;;;18.47;100.00
75681;BME280;64294;49.176;16.626;2023-09-19T06:19:03;98869.63;;;18.31;100.00
75681;BME280;64294;49.176;16.626;2023-09-19T06:21:32;98862.88;;;18.36;100.00
75681;BME280;64294;49.176;16.626;2023-09-19T06:23:59;98872.13;;;18.46;100.00
75681;BME280;64294;49.176;16.626;2023-09-19T06:26:24;98884.22;;;18.57;100.00
75681;BME280;64294;49.176;16.626;2023-09-19T06:28:52;98885.38;;;18.23;100.00
75681;BME280;64294;49.176;16.626;2023-09-19T06:31:18;98893.13;;;18.32;100.00
75681;BME280;64294;49.176;16.626;2023-09-19T06:33:43;98892.09;;;18.27;100.00
75681;BME280;64294;49.176;16.626;2023-09-19T06:36:10;98903.75;;;18.31;100.00
75681;BME280;64294;49.176;16.626;2023-09-19T06:38:36;98904.53;;;18.22;100.00
75681;BME280;64294;49.176;16.626;2023-09-19T06:41:03;98907.84;;;18.09;100.00
75681;BME280;64294;49.176;16.626;2023-09-19T06:43:34;98909.34;;;18.00;100.00
75681;BME280;64294;49.176;16.626;2023-09-19T06:46:00;98913.97;;;17.96;100.00
75681;BME280;64294;49.176;16.626;2023-09-19T06:48:27;98906.81;;;18.04;100.00
75681;BME280;64294;49.176;16.626;2023-09-19T06:50:54;98917.72;;;18.08;100.00
75681;BME280;64294;49.176;16.626;2023-09-19T06:53:20;98919.22;;;18.09;100.00
75681;BME280;64294;49.176;16.626;2023-09-19T06:55:47;98931.78;;;18.25;100.00
75681;BME280;64294;49.176;16.626;2023-09-19T06:58:14;98925.34;;;18.25;100.00
75681;BME280;64294;49.176;16.626;2023-09-19T07:00:44;98938.81;;;18.24;100.00
75681;BME280;64294;49.176;16.626;2023-09-19T07:03:10;98936.25;;;18.28;100.00
75681;BME280;64294;49.176;16.626;2023-09-19T07:05:48;98944.03;;;18.18;100.00
75681;BME280;64294;49.176;16.626;2023-09-19T07:08:13;98937.75;;;18.29;100.00
75681;BME280;64294;49.176;16.626;2023-09-19T07:10:40;98940.28;;;18.44;100.00
75681;BME280;64294;49.176;16.626;2023-09-19T07:13:07;98940.88;;;18.43;100.00
75681;BME280;64294;49.176;16.626;2023-09-19T07:15:39;98941.56;;;18.82;100.00
75681;BME280;64294;49.176;16.626;2023-09-19T07:18:06;98948.09;;;18.94;100.00
75681;BME280;64294;49.176;16.626;2023-09-19T07:20:32;98950.63;;;19.31;100.00
75681;BME280;64294;49.176;16.626;2023-09-19T07:22:59;98949.03;;;19.49;100.00
75681;BME280;64294;49.176;16.626;2023-09-19T07:25:26;98944.78;;;19.60;100.00
75681;BME280;64294;49.176;16.626;2023-09-19T07:27:54;98949.66;;;19.69;100.00
75681;BME280;64294;49.176;16.626;2023-09-19T07:30:20;98952.81;;;19.94;100.00
75681;BME280;64294;49.176;16.626;2023-09-19T07:32:48;98951.06;;;20.22;100.00
75681;BME280;64294;49.176;16.626;2023-09-19T07:35:17;98955.81;;;20.30;100.00
75681;BME280;64294;49.176;16.626;2023-09-19T07:37:45;98962.91;;;20.40;100.00
75681;BME280;64294;49.176;16.626;2023-09-19T07:40:15;98960.16;;;20.31;100.00
75681;BME280;64294;49.176;16.626;2023-09-19T07:42:40;98957.59;;;20.13;100.00
75681;BME280;64294;49.176;16.626;2023-09-19T07:45:12;98960.91;;;20.31;100.00
75681;BME280;64294;49.176;16.626;2023-09-19T07:47:43;98960.66;;;20.27;100.00
75681;BME280;64294;49.176;16.626;2023-09-19T07:50:09;98957.44;;;20.33;100.00
75681;BME280;64294;49.176;16.626;2023-09-19T07:52:37;98960.75;;;20.62;100.00
75681;BME280;64294;49.176;16.626;2023-09-19T07:55:07;98965.44;;;20.91;100.00
75681;BME280;64294;49.176;16.626;2023-09-19T07:57:37;98968.28;;;20.91;100.00
75681;BME280;64294;49.176;16.626;2023-09-19T08:00:07;98964.28;;;20.72;100.00
75681;BME280;64294;49.176;16.626;2023-09-19T08:02:42;98962.44;;;20.44;100.00
75681;BME280;64294;49.176;16.626;2023-09-19T08:05:10;98962.13;;;20.61;100.00
75681;BME280;64294;49.176;16.626;2023-09-19T08:07:40;98963.16;;;20.77;100.00
75681;BME280;64294;49.176;16.626;2023-09-19T08:10:07;98963.47;;;20.48;100.00
75681;BME280;64294;49.176;16.626;2023-09-19T08:12:39;98970.97;;;20.65;100.00
75681;BME280;64294;49.176;16.626;2023-09-19T08:15:15;98982.53;;;20.67;100.00
75681;BME280;64294;49.176;16.626;2023-09-19T08:17:43;98984.34;;;20.63;100.00
75681;BME280;64294;49.176;16.626;2023-09-19T08:20:10;98989.31;;;20.62;100.00
75681;BME280;64294;49.176;16.626;2023-09-19T08:22:52;98985.63;;;20.71;100.00
75681;BME280;64294;49.176;16.626;2023-09-19T08:25:19;98986.13;;;20.79;100.00
75681;BME280;64294;49.176;16.626;2023-09-19T08:27:46;98983.44;;;21.16;99.88
75681;BME280;64294;49.176;16.626;2023-09-19T08:30:19;98993.34;;;20.80;100.00
75681;BME280;64294;49.176;16.626;2023-09-19T08:32:49;98994.56;;;20.77;99.48
75681;BME280;64294;49.176;16.626;2023-09-19T08:35:17;98994.44;;;21.32;95.53
75681;BME280;64294;49.176;16.626;2023-09-19T08:37:44;98998.91;;;21.58;94.43
75681;BME280;64294;49.176;16.626;2023-09-19T08:40:13;99001.16;;;21.60;95.16
75681;BME280;64294;49.176;16.626;2023-09-19T08:42:53;99003.28;;;22.20;91.47
75681;BME280;64294;49.176;16.626;2023-09-19T08:45:25;98990.13;;;22.03;91.69
75681;BME280;64294;49.176;16.626;2023-09-19T08:50:31;99003.53;;;22.49;85.25
75681;BME280;64294;49.176;16.626;2023-09-19T08:53:10;98996.94;;;22.47;85.44
75681;BME280;64294;49.176;16.626;2023-09-19T08:55:39;99004.91;;;22.74;83.22
75681;BME280;64294;49.176;16.626;2023-09-19T08:58:12;99010.94;;;24.13;77.79
75681;BME280;64294;49.176;16.626;2023-09-19T09:00:39;99008.69;;;24.25;74.38
75681;BME280;64294;49.176;16.626;2023-09-19T09:03:09;99003.53;;;25.91;67.44
75681;BME280;64294;49.176;16.626;2023-09-19T09:05:35;98997.63;;;27.29;61.27
75681;BME280;64294;49.176;16.626;2023-09-19T09:08:02;99005.72;;;28.34;55.49
75681;BME280;64294;49.176;16.626;2023-09-19T09:10:31;98999.22;;;29.25;51.59
75681;BME280;64294;49.176;16.626;2023-09-19T09:12:59;99003.16;;;30.69;47.18
75681;BME280;64294;49.176;16.626;2023-09-19T09:15:25;99002.28;;;33.88;40.53
75681;BME280;64294;49.176;16.626;2023-09-19T09:17:51;99001.66;;;34.79;37.05
75681;BME280;64294;49.176;16.626;2023-09-19T09:20:20;99005.44;;;32.96;39.74
75681;BME280;64294;49.176;16.626;2023-09-19T09:22:52;99012.00;;;32.96;38.42
75681;BME280;64294;49.176;16.626;2023-09-19T09:25:50;99009.72;;;33.43;38.80
75681;BME280;64294;49.176;16.626;2023-09-19T09:28:24;99014.91;;;32.52;38.78
75681;BME280;64294;49.176;16.626;2023-09-19T09:30:52;99011.91;;;31.70;39.82
75681;BME280;64294;49.176;16.626;2023-09-19T09:33:18;99006.03;;;32.44;38.76
75681;BME280;64294;49.176;16.626;2023-09-19T09:35:53;99009.59;;;32.82;37.69
75681;BME280;64294;49.176;16.626;2023-09-19T09:38:23;99011.03;;;33.88;36.90
75681;BME280;64294;49.176;16.626;2023-09-19T09:40:57;99010.66;;;33.58;36.37
75681;BME280;64294;49.176;16.626;2023-09-19T09:49:03;99007.22;;;34.44;34.12
75681;BME280;64294;49.176;16.626;2023-09-19T09:51:59;99012.28;;;33.73;35.12
75681;BME280;64294;49.176;16.626;2023-09-19T09:54:27;99019.97;;;32.94;36.84
75681;BME280;64294;49.176;16.626;2023-09-19T09:57:05;99008.88;;;31.63;39.31
75681;BME280;64294;49.176;16.626;2023-09-19T09:59:57;99013.28;;;31.30;39.64
75681;BME280;64294;49.176;16.626;2023-09-19T10:02:41;99023.59;;;29.66;41.70
75681;BME280;64294;49.176;16.626;2023-09-19T10:05:20;99029.66;;;28.37;44.54
75681;BME280;64294;49.176;16.626;2023-09-19T10:07:46;99031.25;;;27.60;46.59
75681;BME280;64294;49.176;16.626;2023-09-19T10:10:37;99030.25;;;28.33;45.94
75681;BME280;64294;49.176;16.626;2023-09-19T10:13:13;99028.19;;;30.01;42.01
75681;BME280;64294;49.176;16.626;2023-09-19T10:15:44;99022.38;;;29.75;41.90
75681;BME280;64294;49.176;16.626;2023-09-19T10:18:20;99037.13;;;28.65;42.94
75681;BME280;64294;49.176;16.626;2023-09-19T10:20:46;99037.88;;;27.45;45.75
75681;BME280;64294;49.176;16.626;2023-09-19T10:23:18;99042.75;;;27.78;44.92
75681;BME280;64294;49.176;16.626;2023-09-19T10:25:49;99037.63;;;28.82;43.31
75681;BME280;64294;49.176;16.626;2023-09-19T10:28:16;99030.75;;;27.86;44.17
75681;BME280;64294;49.176;16.626;2023-09-19T10:30:46;99038.22;;;26.98;45.82
75681;BME280;64294;49.176;16.626;2023-09-19T10:33:14;99039.06;;;27.75;44.11
75681;BME280;64294;49.176;16.626;2023-09-19T10:35:43;99040.22;;;28.28;43.14
75681;BME280;64294;49.176;16.626;2023-09-19T10:38:11;99040.34;;;28.32;42.90
75681;BME280;64294;49.176;16.626;2023-09-19T10:40:37;99048.47;;;28.38;42.28
75681;BME280;64294;49.176;16.626;2023-09-19T10:43:06;99043.16;;;30.47;38.28
75681;BME280;64294;49.176;16.626;2023-09-19T10:45:35;99040.41;;;32.98;33.65
75681;BME280;64294;49.176;16.626;2023-09-19T10:48:04;99044.19;;;32.64;33.92
75681;BME280;64294;49.176;16.626;2023-09-19T10:50:33;99041.94;;;32.59;33.73
75681;BME280;64294;49.176;16.626;2023-09-19T10:53:01;99044.69;;;31.74;35.12
75681;BME280;64294;49.176;16.626;2023-09-19T10:55:32;99032.22;;;31.03;34.57
75681;BME280;64294;49.176;16.626;2023-09-19T10:58:00;99037.09;;;29.57;37.66
75681;BME280;64294;49.176;16.626;2023-09-19T11:00:26;99044.72;;;29.70;37.62
75681;BME280;64294;49.176;16.626;2023-09-19T11:03:18;99044.69;;;31.40;35.39
75681;BME280;64294;49.176;16.626;2023-09-19T11:06:05;99039.94;;;32.27;33.82
75681;BME280;64294;49.176;16.626;2023-09-19T11:09:03;99031.75;;;30.53;35.04
75681;BME280;64294;49.176;16.626;2023-09-19T11:11:46;99055.97;;;28.67;37.41
75681;BME280;64294;49.176;16.626;2023-09-19T11:30:53;99040.81;;;30.97;36.21
75681;BME280;64294;49.176;16.626;2023-09-19T11:33:21;99032.03;;;32.34;32.67
75681;BME280;64294;49.176;16.626;2023-09-19T11:36:01;99025.75;;;34.02;30.79
75681;BME280;64294;49.176;16.626;2023-09-19T11:49:16;99021.34;;;32.06;32.68
75681;BME280;64294;49.176;16.626;2023-09-19T11:51:50;99023.28;;;33.24;31.11
75681;BME280;64294;49.176;16.626;2023-09-19T11:54:17;99028.44;;;34.51;30.01
75681;BME280;64294;49.176;16.626;2023-09-19T11:56:44;99018.69;;;34.24;29.96
75681;BME280;64294;49.176;16.626;2023-09-19T11:59:11;99018.34;;;34.66;29.45
75681;BME280;64294;49.176;16.626;2023-09-19T12:01:38;99034.63;;;33.02;30.38
75681;BME280;64294;49.176;16.626;2023-09-19T12:04:11;99037.25;;;31.65;32.76
75681;BME280;64294;49.176;16.626;2023-09-19T12:06:36;99036.59;;;32.05;32.30
75681;BME280;64294;49.176;16.626;2023-09-19T12:09:12;99026.25;;;33.28;31.08
75681;BME280;64294;49.176;16.626;2023-09-19T12:11:42;99031.38;;;32.37;31.75
75681;BME280;64294;49.176;16.626;2023-09-19T12:14:11;99020.13;;;31.45;32.75
75681;BME280;64294;49.176;16.626;2023-09-19T12:16:36;99015.34;;;29.56;34.96
75681;BME280;64294;49.176;16.626;2023-09-19T12:19:19;99031.72;;;28.78;36.22
75681;BME280;64294;49.176;16.626;2023-09-19T12:22:03;99032.50;;;28.15;37.35
75681;BME280;64294;49.176;16.626;2023-09-19T12:24:35;99028.09;;;26.97;39.48
75681;BME280;64294;49.176;16.626;2023-09-19T12:27:09;99022.16;;;27.68;38.64
75681;BME280;64294;49.176;16.626;2023-09-19T12:29:47;99038.50;;;27.61;39.86
75681;BME280;64294;49.176;16.626;2023-09-19T12:32:37;99025.25;;;28.14;38.56
75681;BME280;64294;49.176;16.626;2023-09-19T12:35:06;99030.13;;;28.94;37.71
75681;BME280;64294;49.176;16.626;2023-09-19T12:37:36;99034.56;;;29.21;36.83
75681;BME280;64294;49.176;16.626;2023-09-19T12:40:09;99026.63;;;29.46;35.76
75681;BME280;64294;49.176;16.626;2023-09-19T12:42:48;99024.00;;;29.80;36.60
75681;BME280;64294;49.176;16.626;2023-09-19T12:45:15;99026.38;;;29.62;36.62
75681;BME280;64294;49.176;16.626;2023-09-19T12:48:17;99024.00;;;29.80;34.90
75681;BME280;64294;49.176;16.626;2023-09-19T12:51:05;99025.53;;;29.57;35.44
75681;BME280;64294;49.176;16.626;2023-09-19T12:53:33;99022.38;;;29.49;36.10
75681;BME280;64294;49.176;16.626;2023-09-19T12:56:02;99028.78;;;29.21;35.99
75681;BME280;64294;49.176;16.626;2023-09-19T12:58:34;99027.84;;;29.15;36.24
75681;BME280;64294;49.176;16.626;2023-09-19T13:01:00;99022.38;;;28.57;36.70
75681;BME280;64294;49.176;16.626;2023-09-19T13:03:28;99025.69;;;28.70;36.16
75681;BME280;64294;49.176;16.626;2023-09-19T13:06:03;99025.75;;;29.17;36.08
75681;BME280;64294;49.176;16.626;2023-09-19T13:08:34;99037.88;;;28.88;35.99
75681;BME280;64294;49.176;16.626;2023-09-19T13:13:44;99035.25;;;28.30;37.47
75681;BME280;64294;49.176;16.626;2023-09-19T13:16:10;99037.78;;;28.42;37.39
75681;BME280;64294;49.176;16.626;2023-09-19T13:18:48;99031.25;;;28.42;37.40
75681;BME280;64294;49.176;16.626;2023-09-19T13:21:29;99036.75;;;27.92;38.05
75681;BME280;64294;49.176;16.626;2023-09-19T13:24:24;99028.72;;;28.52;37.28
75681;BME280;64294;49.176;16.626;2023-09-19T13:26:56;99034.06;;;29.05;37.50
75681;BME280;64294;49.176;16.626;2023-09-19T13:29:21;99036.97;;;29.29;36.74
75681;BME280;64294;49.176;16.626;2023-09-19T13:31:51;99037.50;;;28.78;37.41
75681;BME280;64294;49.176;16.626;2023-09-19T13:34:20;99037.63;;;27.96;38.41
75681;BME280;64294;49.176;16.626;2023-09-19T13:36:46;99035.44;;;27.37;38.93
75681;BME280;64294;49.176;16.626;2023-09-19T13:39:18;99036.56;;;26.93;40.79
75681;BME280;64294;49.176;16.626;2023-09-19T13:41:45;99037.03;;;26.34;41.32
75681;BME280;64294;49.176;16.626;2023-09-19T13:44:14;99043.75;;;26.22;42.13
75681;BME280;64294;49.176;16.626;2023-09-19T13:46:41;99027.47;;;26.29;42.39
75681;BME280;64294;49.176;16.626;2023-09-19T13:49:11;99030.16;;;26.07;41.86
75681;BME280;64294;49.176;16.626;2023-09-19T13:51:37;99035.78;;;25.87;42.74
75681;BME280;64294;49.176;16.626;2023-09-19T13:54:02;99036.13;;;25.80;42.49